Etusivu
METAR-TAF:

METAR-TAF

Lentoasemat :

L. M. Clayton Airport

Wolf Point, Montana, Yhdysvallat

Leveyspiiri: 48-05-40N, Pituuspiiri: 105-34-38W, korkeus merenpinnasta: 605 m

Tämänhetkinen sää

Tämä raportti tehtiin 49 minuuttia sitten, kello 08.53 UTC
Tuuli 7 kn idästä
Lämpötila 14°C
Kosteus 72%
Ilmanpaine 1019 hPa
Näkyvyys: 16.1 km
selkeää

METAR: KOLF 140853Z AUTO 08007KT 10SM CLR 14/09 A3010 RMK AO2 SLP186 T01390094 53001

Aika: 03:42 (09:42 UTC)

Sääennuste

Tämä raportti tehtiin 4 tuntia ja 17 minuuttia sitten, kello 05.25 UTC
Ennuste voimassa 14. päivästä klo 06 UTC - 15. päivään klo 06 UTC
Tuuli 8 kn idästä
Näkyvyys: 10 km
selkeää
From 14. päivästä klo 1600 UTC
Tuuli 18 kn idästä/kaakosta puuskistuen 27 kn:hen
Näkyvyys: 10 km
selkeää

TAF: KOLF 140525Z 1406/1506 08008KT P6SM SKC FM141600 12018G27KT P6SM SKC

Säähavainnot ja -ennusteet yli 4000 lentoasemalta (METAR- ja TAF-raportit).

Käytössä olevat sääasemat on merkitty karttaan keltaisilla ja punaisilla pisteillä.

Aseta hiiri pisteen päälle nähdäksesi sääaseman nimen.

Klikkaa sitten nähdäksesi säähavainnot ja -ennusteet.

Kartan vaihtaminen: klikkaa mustalla rastilla varustettuja vihreitä pisteitä, niin voit zoomata sisään; viivalla varustettua vihreää pistettä, niin voit zoomata ulos tai vihreitä nuolia, niin pääset viereisille kartoille.


METAR-TAF: